EAG5519 SBJV-SBSP
Flight info
| Callsign | EAG5519 |
|---|---|
| Flight time | 0h 42m |
| Altitude | 25000 |
| Route | DULIA UM400 KOXAG UM540 ANISE |
| Aircraft | A320/M-SDFIRWY/H |
Departure
| Time | 2026-04-16 23:15 |
|---|---|
| Airport | Lauro Carneiro de Loyola Airport (SBJV) |
Arrival
| Time | 2026-04-16 23:57 |
|---|---|
| Airport | Congonhas–Deputado Freitas Nobre Airport (SBSP) |
| Time | Latitude | Longitude | Altitude | Speed | Heading |
|---|---|---|---|---|---|
| 2026-04-16 22:55 | -26.22398 | -48.80106 | 20 ft | 0 kts | 218° |
| 2026-04-16 23:05 | -26.22392 | -48.80101 | 21 ft | 2 kts | 218° |
| 2026-04-16 23:05 | -26.22376 | -48.80088 | 24 ft | 3 kts | 216° |
| 2026-04-16 23:05 | -26.22360 | -48.80075 | 23 ft | 3 kts | 211° |
| 2026-04-16 23:05 | -26.22341 | -48.80066 | 22 ft | 3 kts | 193° |
| 2026-04-16 23:06 | -26.22325 | -48.80068 | 21 ft | 2 kts | 136° |
| 2026-04-16 23:06 | -26.22321 | -48.80074 | 23 ft | 1 kts | 129° |
| 2026-04-16 23:06 | -26.22320 | -48.80074 | 23 ft | 0 kts | 129° |
| 2026-04-16 23:09 | -26.22324 | -48.80069 | 20 ft | 1 kts | 129° |
| 2026-04-16 23:09 | -26.22329 | -48.80059 | 21 ft | 2 kts | 108° |
| 2026-04-16 23:09 | -26.22329 | -48.80035 | 21 ft | 2 kts | 75° |
| 2026-04-16 23:09 | -26.22316 | -48.80013 | 23 ft | 3 kts | 45° |
| 2026-04-16 23:10 | -26.22293 | -48.79976 | 22 ft | 6 kts | 82° |
| 2026-04-16 23:10 | -26.22309 | -48.79928 | 24 ft | 6 kts | 126° |
| 2026-04-16 23:10 | -26.22356 | -48.79861 | 22 ft | 13 kts | 129° |
| 2026-04-16 23:10 | -26.22413 | -48.79783 | 23 ft | 13 kts | 128° |
| 2026-04-16 23:11 | -26.22470 | -48.79704 | 21 ft | 14 kts | 129° |
| 2026-04-16 23:11 | -26.22528 | -48.79624 | 23 ft | 13 kts | 129° |
| 2026-04-16 23:11 | -26.22581 | -48.79551 | 20 ft | 12 kts | 129° |
| 2026-04-16 23:11 | -26.22630 | -48.79484 | 21 ft | 10 kts | 129° |
| 2026-04-16 23:12 | -26.22684 | -48.79408 | 22 ft | 13 kts | 128° |
| 2026-04-16 23:12 | -26.22737 | -48.79334 | 23 ft | 11 kts | 130° |
| 2026-04-16 23:12 | -26.22785 | -48.79270 | 22 ft | 10 kts | 129° |
| 2026-04-16 23:12 | -26.22827 | -48.79212 | 23 ft | 9 kts | 128° |
| 2026-04-16 23:13 | -26.22862 | -48.79170 | 23 ft | 6 kts | 149° |
| 2026-04-16 23:13 | -26.22897 | -48.79144 | 24 ft | 6 kts | 136° |
| 2026-04-16 23:13 | -26.22902 | -48.79113 | 24 ft | 1 kts | 73° |
| 2026-04-16 23:13 | -26.22898 | -48.79111 | 24 ft | 1 kts | 11° |
| 2026-04-16 23:14 | -26.22895 | -48.79114 | 24 ft | 1 kts | 317° |
| 2026-04-16 23:14 | -26.22892 | -48.79120 | 24 ft | 2 kts | 302° |
| 2026-04-16 23:14 | -26.22888 | -48.79127 | 15 ft | 1 kts | 307° |
| 2026-04-16 23:14 | -26.22795 | -48.79256 | 22 ft | 52 kts | 309° |
| 2026-04-16 23:15 | -26.21695 | -48.80777 | 155 ft | 187 kts | 311° |
| 2026-04-16 23:15 | -26.20738 | -48.81974 | 708 ft | 225 kts | 314° |
| 2026-04-16 23:15 | -26.19596 | -48.83313 | 1316 ft | 250 kts | 315° |
| 2026-04-16 23:16 | -26.18366 | -48.84758 | 1778 ft | 261 kts | 313° |
| 2026-04-16 23:16 | -26.17059 | -48.86134 | 2515 ft | 254 kts | 329° |
| 2026-04-16 23:16 | -26.15464 | -48.86841 | 3319 ft | 241 kts | 353° |
| 2026-04-16 23:16 | -26.13795 | -48.86783 | 4021 ft | 244 kts | 14° |
| 2026-04-16 23:17 | -26.12243 | -48.86011 | 4580 ft | 248 kts | 35° |
| 2026-04-16 23:17 | -26.11056 | -48.84644 | 5124 ft | 248 kts | 60° |
| 2026-04-16 23:17 | -26.10331 | -48.82885 | 5586 ft | 253 kts | 66° |
| 2026-04-16 23:17 | -26.09589 | -48.81090 | 6092 ft | 256 kts | 63° |
| 2026-04-16 23:18 | -26.08717 | -48.79376 | 6590 ft | 260 kts | 57° |
| 2026-04-16 23:18 | -26.07665 | -48.77727 | 7126 ft | 262 kts | 51° |
| 2026-04-16 23:18 | -26.06479 | -48.76176 | 7670 ft | 264 kts | 47° |
| 2026-04-16 23:18 | -26.05195 | -48.74709 | 8220 ft | 266 kts | 44° |
| 2026-04-16 23:19 | -26.03828 | -48.73286 | 8773 ft | 269 kts | 41° |
| 2026-04-16 23:19 | -26.02411 | -48.71906 | 9330 ft | 272 kts | 40° |
| 2026-04-16 23:19 | -26.01195 | -48.70299 | 9884 ft | 276 kts | 64° |
| 2026-04-16 23:19 | -26.00650 | -48.68247 | 10410 ft | 278 kts | 78° |
| 2026-04-16 23:20 | -26.00326 | -48.66111 | 10940 ft | 281 kts | 81° |
| 2026-04-16 23:20 | -26.00060 | -48.63954 | 11491 ft | 283 kts | 82° |
| 2026-04-16 23:20 | -25.99810 | -48.61774 | 12050 ft | 286 kts | 82° |
| 2026-04-16 23:20 | -25.99551 | -48.59576 | 12607 ft | 288 kts | 81° |
| 2026-04-16 23:21 | -25.99275 | -48.57357 | 13170 ft | 291 kts | 80° |
| 2026-04-16 23:21 | -25.98976 | -48.55124 | 13731 ft | 293 kts | 80° |
| 2026-04-16 23:21 | -25.98665 | -48.52873 | 14209 ft | 296 kts | 79° |
| 2026-04-16 23:21 | -25.98329 | -48.50599 | 14655 ft | 300 kts | 79° |
| 2026-04-16 23:22 | -25.97974 | -48.48291 | 15093 ft | 304 kts | 79° |
| 2026-04-16 23:22 | -25.97613 | -48.45965 | 15532 ft | 308 kts | 79° |
| 2026-04-16 23:22 | -25.97257 | -48.43600 | 15969 ft | 312 kts | 79° |
| 2026-04-16 23:22 | -25.96900 | -48.41201 | 16407 ft | 316 kts | 79° |
| 2026-04-16 23:23 | -25.96400 | -48.38822 | 16825 ft | 318 kts | 70° |
| 2026-04-16 23:23 | -25.95608 | -48.36504 | 17248 ft | 321 kts | 66° |
| 2026-04-16 23:23 | -25.94703 | -48.34217 | 17673 ft | 325 kts | 64° |
| 2026-04-16 23:23 | -25.93737 | -48.31943 | 18096 ft | 328 kts | 63° |
| 2026-04-16 23:24 | -25.92755 | -48.29684 | 18478 ft | 331 kts | 63° |
| 2026-04-16 23:24 | -25.91756 | -48.27369 | 18855 ft | 333 kts | 63° |
| 2026-04-16 23:24 | -25.90745 | -48.25007 | 19233 ft | 335 kts | 63° |
| 2026-04-16 23:24 | -25.89755 | -48.22689 | 19594 ft | 338 kts | 63° |
| 2026-04-16 23:25 | -25.88747 | -48.20324 | 19941 ft | 340 kts | 63° |
| 2026-04-16 23:25 | -25.87693 | -48.17963 | 20302 ft | 342 kts | 58° |
| 2026-04-16 23:25 | -25.86364 | -48.15778 | 20652 ft | 343 kts | 51° |
| 2026-04-16 23:25 | -25.84875 | -48.13700 | 21002 ft | 345 kts | 48° |
| 2026-04-16 23:26 | -25.83307 | -48.11670 | 21348 ft | 347 kts | 46° |
| 2026-04-16 23:26 | -25.81695 | -48.09663 | 21694 ft | 349 kts | 46° |
| 2026-04-16 23:26 | -25.80066 | -48.07665 | 22035 ft | 351 kts | 45° |
| 2026-04-16 23:26 | -25.78427 | -48.05641 | 22375 ft | 353 kts | 46° |
| 2026-04-16 23:27 | -25.76791 | -48.03601 | 22698 ft | 356 kts | 46° |
| 2026-04-16 23:27 | -25.75147 | -48.01542 | 23026 ft | 358 kts | 46° |
| 2026-04-16 23:27 | -25.73492 | -47.99463 | 23354 ft | 360 kts | 46° |
| 2026-04-16 23:27 | -25.71827 | -47.97371 | 23646 ft | 362 kts | 46° |
| 2026-04-16 23:28 | -25.70157 | -47.95272 | 23927 ft | 364 kts | 46° |
| 2026-04-16 23:28 | -25.68480 | -47.93165 | 24189 ft | 365 kts | 46° |
| 2026-04-16 23:28 | -25.66791 | -47.91044 | 24456 ft | 367 kts | 46° |
| 2026-04-16 23:28 | -25.65073 | -47.88890 | 24712 ft | 369 kts | 46° |
| 2026-04-16 23:29 | -25.63364 | -47.86750 | 24877 ft | 374 kts | 46° |
| 2026-04-16 23:29 | -25.61617 | -47.84568 | 24947 ft | 382 kts | 46° |
| 2026-04-16 23:29 | -25.59844 | -47.82332 | 24953 ft | 389 kts | 46° |
| 2026-04-16 23:29 | -25.58047 | -47.80048 | 24956 ft | 396 kts | 46° |
| 2026-04-16 23:30 | -25.56226 | -47.77764 | 24957 ft | 404 kts | 46° |
| 2026-04-16 23:30 | -25.54349 | -47.75419 | 24957 ft | 410 kts | 46° |
| 2026-04-16 23:30 | -25.52450 | -47.73021 | 24959 ft | 417 kts | 47° |
| 2026-04-16 23:30 | -25.50531 | -47.70587 | 24956 ft | 423 kts | 47° |
| 2026-04-16 23:31 | -25.48546 | -47.68105 | 24960 ft | 428 kts | 46° |
| 2026-04-16 23:31 | -25.46557 | -47.65631 | 24961 ft | 433 kts | 46° |
| 2026-04-16 23:31 | -25.44550 | -47.63110 | 24956 ft | 438 kts | 47° |
| 2026-04-16 23:31 | -25.42531 | -47.60563 | 24957 ft | 442 kts | 47° |
| 2026-04-16 23:32 | -25.40578 | -47.57904 | 24957 ft | 448 kts | 53° |
| 2026-04-16 23:32 | -25.38941 | -47.54965 | 24957 ft | 452 kts | 60° |
| 2026-04-16 23:32 | -25.37513 | -47.51900 | 24955 ft | 455 kts | 63° |
| 2026-04-16 23:32 | -25.36159 | -47.48733 | 24948 ft | 455 kts | 64° |
| 2026-04-16 23:33 | -25.34841 | -47.45549 | 24957 ft | 454 kts | 64° |
| 2026-04-16 23:33 | -25.33533 | -47.42376 | 24955 ft | 454 kts | 64° |
| 2026-04-16 23:33 | -25.32204 | -47.39207 | 24953 ft | 454 kts | 64° |
| 2026-04-16 23:33 | -25.30866 | -47.36048 | 24953 ft | 454 kts | 63° |
| 2026-04-16 23:34 | -25.29500 | -47.32900 | 24956 ft | 454 kts | 63° |
| 2026-04-16 23:34 | -25.28123 | -47.29765 | 24953 ft | 453 kts | 63° |
| 2026-04-16 23:34 | -25.26757 | -47.26626 | 24949 ft | 453 kts | 63° |
| 2026-04-16 23:34 | -25.25404 | -47.23478 | 24949 ft | 453 kts | 64° |
| 2026-04-16 23:35 | -25.24044 | -47.20321 | 24951 ft | 453 kts | 63° |
| 2026-04-16 23:35 | -25.22671 | -47.17197 | 24953 ft | 453 kts | 63° |
| 2026-04-16 23:35 | -25.21318 | -47.14097 | 24949 ft | 453 kts | 63° |
| 2026-04-16 23:35 | -25.19944 | -47.10915 | 24955 ft | 453 kts | 63° |
| 2026-04-16 23:36 | -25.18604 | -47.07821 | 24952 ft | 453 kts | 63° |
| 2026-04-16 23:36 | -25.17231 | -47.04691 | 24954 ft | 453 kts | 64° |
| 2026-04-16 23:36 | -25.15819 | -47.01591 | 24948 ft | 452 kts | 58° |
| 2026-04-16 23:36 | -25.13975 | -46.98803 | 24954 ft | 449 kts | 46° |
| 2026-04-16 23:37 | -25.11687 | -46.96461 | 24955 ft | 447 kts | 36° |
| 2026-04-16 23:37 | -25.09170 | -46.94460 | 24954 ft | 445 kts | 31° |
| 2026-04-16 23:37 | -25.06545 | -46.92654 | 24958 ft | 444 kts | 28° |
| 2026-04-16 23:37 | -25.03877 | -46.90943 | 24956 ft | 444 kts | 27° |
| 2026-04-16 23:38 | -25.01196 | -46.89261 | 24955 ft | 444 kts | 27° |
| 2026-04-16 23:38 | -24.99415 | -46.88136 | 24951 ft | 444 kts | 27° |
| 2026-04-16 23:38 | -24.96731 | -46.86433 | 24950 ft | 444 kts | 27° |
| 2026-04-16 23:38 | -24.94066 | -46.84709 | 24953 ft | 444 kts | 28° |
| 2026-04-16 23:39 | -24.91410 | -46.82972 | 24951 ft | 444 kts | 28° |
| 2026-04-16 23:39 | -24.88754 | -46.81227 | 24955 ft | 445 kts | 28° |
| 2026-04-16 23:39 | -24.86097 | -46.79479 | 24957 ft | 445 kts | 28° |
| 2026-04-16 23:39 | -24.83444 | -46.77733 | 24957 ft | 445 kts | 28° |
| 2026-04-16 23:40 | -24.80782 | -46.75981 | 24957 ft | 445 kts | 28° |
| 2026-04-16 23:40 | -24.78123 | -46.74237 | 24956 ft | 445 kts | 28° |
| 2026-04-16 23:40 | -24.75417 | -46.72482 | 24953 ft | 445 kts | 28° |
| 2026-04-16 23:40 | -24.72790 | -46.70766 | 24955 ft | 445 kts | 28° |
| 2026-04-16 23:41 | -24.70104 | -46.69007 | 24708 ft | 452 kts | 28° |
| 2026-04-16 23:41 | -24.67377 | -46.67224 | 24341 ft | 461 kts | 28° |
| 2026-04-16 23:41 | -24.64616 | -46.65366 | 23923 ft | 469 kts | 28° |
| 2026-04-16 23:41 | -24.61709 | -46.63792 | 23480 ft | 464 kts | 18° |
| 2026-04-16 23:42 | -24.58603 | -46.62899 | 22971 ft | 459 kts | 7° |
| 2026-04-16 23:42 | -24.55436 | -46.62520 | 22452 ft | 455 kts | 1° |
| 2026-04-16 23:42 | -24.52278 | -46.62413 | 21964 ft | 453 kts | 358° |
| 2026-04-16 23:42 | -24.49135 | -46.62430 | 21477 ft | 450 kts | 356° |
| 2026-04-16 23:43 | -24.46004 | -46.62488 | 20991 ft | 448 kts | 356° |
| 2026-04-16 23:43 | -24.42891 | -46.62554 | 20516 ft | 446 kts | 357° |
| 2026-04-16 23:43 | -24.39793 | -46.62601 | 20046 ft | 444 kts | 357° |
| 2026-04-16 23:43 | -24.36712 | -46.62634 | 19634 ft | 440 kts | 358° |
| 2026-04-16 23:44 | -24.33709 | -46.62636 | 19233 ft | 435 kts | 358° |
| 2026-04-16 23:44 | -24.30696 | -46.62626 | 18824 ft | 431 kts | 358° |
| 2026-04-16 23:44 | -24.27709 | -46.62615 | 18422 ft | 427 kts | 358° |
| 2026-04-16 23:44 | -24.24748 | -46.62606 | 17981 ft | 423 kts | 358° |
| 2026-04-16 23:45 | -24.21806 | -46.62602 | 17526 ft | 420 kts | 358° |
| 2026-04-16 23:45 | -24.18897 | -46.62608 | 17064 ft | 417 kts | 358° |
| 2026-04-16 23:45 | -24.15998 | -46.62621 | 16624 ft | 415 kts | 358° |
| 2026-04-16 23:45 | -24.13118 | -46.62642 | 16184 ft | 413 kts | 359° |
| 2026-04-16 23:46 | -24.10256 | -46.62646 | 15751 ft | 410 kts | 359° |
| 2026-04-16 23:46 | -24.07397 | -46.62645 | 15326 ft | 409 kts | 359° |
| 2026-04-16 23:46 | -24.04558 | -46.62648 | 14911 ft | 407 kts | 359° |
| 2026-04-16 23:46 | -24.01731 | -46.62658 | 14504 ft | 405 kts | 359° |
| 2026-04-16 23:47 | -23.98921 | -46.62664 | 14088 ft | 403 kts | 360° |
| 2026-04-16 23:47 | -23.96115 | -46.62655 | 13683 ft | 402 kts | 0° |
| 2026-04-16 23:47 | -23.93326 | -46.62642 | 13245 ft | 400 kts | 0° |
| 2026-04-16 23:47 | -23.90540 | -46.62632 | 12796 ft | 398 kts | 359° |
| 2026-04-16 23:48 | -23.87790 | -46.62899 | 12357 ft | 396 kts | 349° |
| 2026-04-16 23:48 | -23.85160 | -46.63710 | 12132 ft | 389 kts | 339° |
| 2026-04-16 23:48 | -23.82712 | -46.64876 | 11726 ft | 378 kts | 333° |
| 2026-04-16 23:48 | -23.80513 | -46.66180 | 11248 ft | 353 kts | 329° |
| 2026-04-16 23:49 | -23.78485 | -46.67517 | 10746 ft | 329 kts | 327° |
| 2026-04-16 23:49 | -23.76631 | -46.68801 | 10252 ft | 303 kts | 327° |
| 2026-04-16 23:49 | -23.74861 | -46.70053 | 9726 ft | 303 kts | 326° |
| 2026-04-16 23:49 | -23.73102 | -46.71308 | 9266 ft | 300 kts | 326° |
| 2026-04-16 23:50 | -23.71364 | -46.72544 | 8789 ft | 297 kts | 327° |
| 2026-04-16 23:50 | -23.69646 | -46.73749 | 8346 ft | 284 kts | 327° |
| 2026-04-16 23:50 | -23.68033 | -46.74874 | 7898 ft | 267 kts | 327° |
| 2026-04-16 23:50 | -23.66501 | -46.75942 | 7453 ft | 255 kts | 327° |
| 2026-04-16 23:51 | -23.65057 | -46.76952 | 7018 ft | 245 kts | 327° |
| 2026-04-16 23:51 | -23.63641 | -46.77933 | 6580 ft | 237 kts | 328° |
| 2026-04-16 23:51 | -23.62280 | -46.78866 | 6318 ft | 227 kts | 328° |
| 2026-04-16 23:51 | -23.60957 | -46.79773 | 6129 ft | 221 kts | 328° |
| 2026-04-16 23:52 | -23.59680 | -46.80649 | 5931 ft | 213 kts | 328° |
| 2026-04-16 23:52 | -23.58445 | -46.81496 | 5707 ft | 206 kts | 328° |
| 2026-04-16 23:52 | -23.57172 | -46.82108 | 5520 ft | 196 kts | 353° |
| 2026-04-16 23:52 | -23.55900 | -46.81783 | 5294 ft | 192 kts | 34° |
| 2026-04-16 23:53 | -23.54994 | -46.80674 | 5108 ft | 204 kts | 54° |
| 2026-04-16 23:53 | -23.54202 | -46.79331 | 4879 ft | 212 kts | 58° |
| 2026-04-16 23:53 | -23.53457 | -46.77963 | 4722 ft | 207 kts | 59° |
| 2026-04-16 23:53 | -23.52755 | -46.76651 | 4633 ft | 191 kts | 59° |
| 2026-04-16 23:54 | -23.52121 | -46.75465 | 4615 ft | 171 kts | 59° |
| 2026-04-16 23:54 | -23.51573 | -46.74325 | 4594 ft | 171 kts | 75° |
| 2026-04-16 23:54 | -23.51732 | -46.73081 | 4622 ft | 169 kts | 121° |
| 2026-04-16 23:54 | -23.52581 | -46.72250 | 4664 ft | 162 kts | 147° |
| 2026-04-16 23:55 | -23.53536 | -46.71631 | 4524 ft | 161 kts | 150° |
| 2026-04-16 23:55 | -23.54521 | -46.71041 | 4315 ft | 160 kts | 151° |
| 2026-04-16 23:55 | -23.55474 | -46.70470 | 4106 ft | 153 kts | 150° |
| 2026-04-16 23:55 | -23.56399 | -46.69911 | 3963 ft | 151 kts | 149° |
| 2026-04-16 23:56 | -23.57301 | -46.69340 | 3773 ft | 149 kts | 148° |
| 2026-04-16 23:56 | -23.58168 | -46.68763 | 3594 ft | 147 kts | 147° |
| 2026-04-16 23:56 | -23.59038 | -46.68165 | 3399 ft | 146 kts | 147° |
| 2026-04-16 23:56 | -23.59879 | -46.67575 | 3182 ft | 146 kts | 147° |
| 2026-04-16 23:57 | -23.60732 | -46.66986 | 2948 ft | 142 kts | 148° |
| 2026-04-16 23:57 | -23.61548 | -46.66415 | 2746 ft | 133 kts | 147° |
| 2026-04-16 23:57 | -23.62309 | -46.65894 | 2603 ft | 119 kts | 148° |
| 2026-04-16 23:57 | -23.62794 | -46.65558 | 2610 ft | 43 kts | 148° |
| 2026-04-16 23:58 | -23.62906 | -46.65514 | 2610 ft | 2 kts | 204° |
| 2026-04-16 23:58 | -23.62932 | -46.65536 | 2606 ft | 8 kts | 229° |
| 2026-04-16 23:58 | -23.62941 | -46.65567 | 2603 ft | 1 kts | 317° |
| 2026-04-16 23:58 | -23.62938 | -46.65569 | 2603 ft | 0 kts | 329° |
| 2026-04-16 23:59 | -23.62933 | -46.65571 | 2603 ft | 6 kts | 336° |
| 2026-04-16 23:59 | -23.62893 | -46.65596 | 2603 ft | 6 kts | 328° |
| 2026-04-16 23:59 | -23.62851 | -46.65626 | 2603 ft | 10 kts | 327° |
| 2026-04-16 23:59 | -23.62795 | -46.65665 | 2602 ft | 9 kts | 327° |
| 2026-04-17 00:00 | -23.62738 | -46.65704 | 2602 ft | 14 kts | 327° |
| 2026-04-17 00:00 | -23.62640 | -46.65773 | 2601 ft | 17 kts | 327° |
| 2026-04-17 00:00 | -23.62547 | -46.65836 | 2601 ft | 15 kts | 327° |
| 2026-04-17 00:00 | -23.62464 | -46.65894 | 2600 ft | 14 kts | 328° |
| 2026-04-17 00:01 | -23.62439 | -46.65924 | 2600 ft | 1 kts | 244° |
| 2026-04-17 00:01 | -23.62446 | -46.65930 | 2599 ft | 2 kts | 224° |
| 2026-04-17 00:01 | -23.62467 | -46.65957 | 2599 ft | 5 kts | 234° |
| 2026-04-17 00:01 | -23.62482 | -46.65982 | 2599 ft | 3 kts | 238° |
| 2026-04-17 00:02 | -23.62483 | -46.65984 | 2599 ft | 0 kts | 238° |